Regional Weather

 

KCRX - Corinth, Mississippi, USA
Distance from station: SW 29mi, 47km
Updated: Mon, 19-Aug-2019 6:55am CDT
Mist, Overcast
Mist, Overcast
 Wind from calm
Wind: Calm
Temperature: 73°F , 23°C
Dew Point: 73°F , 23°C
Humidity: 100%
Barometer: 30.04 inHg , 1017.3 hPa
Summary: Mist
Clouds: Overcast
Visibility: 3/4 mile , 1.2 km
Cloud details: Overcast 500 ft
2019/08/19 11:55 KCRX 191155Z AUTO 00000KT 3/4SM BR VV005 23/23 A3004 RMK AO2
KMKL - Jackson, Tennessee, USA
Distance from station: NW 46mi, 73km
Updated: Mon, 19-Aug-2019 6:53am CDT
Partly cloudy
Partly cloudy
 Wind from calm
Wind: Calm
Temperature: 72°F , 22°C
Dew Point: 70°F , 21°C
Humidity: 94%
Barometer: 30.05 inHg , 1017.6 hPa
Clouds: Partly cloudy
Visibility: 7 miles , 11 km
Cloud details: Partly cloudy 3200 ft
2019/08/19 11:53 KMKL 191153Z 00000KT 7SM SCT032 22/21 A3005 RMK AO2 SLP170 70008 T02170211 10239 20206 53018
 
KMSL - Muscle Shoal, Alabama, USA
Distance from station: SE 49mi, 79km
Updated: Mon, 19-Aug-2019 6:53am CDT
Clear
Clear
 Wind from calm
Wind: Calm
Temperature: 75°F , 24°C
Dew Point: 73°F , 23°C
Humidity: 94%
Barometer: 30.05 inHg , 1017.6 hPa
Clouds: Clear
Visibility: 10 miles , 16 km
2019/08/19 11:53 KMSL 191153Z AUTO 00000KT 10SM CLR 24/23 A3005 RMK AO2 SLP168 T02440228 10261 20244 53017
KTUP - Tupelo, Mississippi, USA
Distance from station: SSW 72mi, 117km
Updated: Mon, 19-Aug-2019 6:53am CDT
Clear
Clear
 Wind from calm
Wind: Calm
Temperature: 79°F , 26°C
Dew Point: 73°F , 23°C
Humidity: 84%
Barometer: 30.04 inHg , 1017.3 hPa
Clouds: Clear
Visibility: 10 miles , 16 km
2019/08/19 11:53 KTUP 191153Z 00000KT 10SM CLR 26/23 A3004 RMK AO2 SLP169 T02560228 10261 20239 53020 $
 
KHSV - Huntsville, Alabama, USA
Distance from station: ESE 92mi, 148km
Updated: Mon, 19-Aug-2019 6:53am CDT
Mostly cloudy
Mostly cloudy
 Wind from varies
Wind: varies 3 mph , 6 km/h
Temperature: 75°F , 24°C
Dew Point: 72°F , 22°C
Humidity: 89%
Barometer: 30.05 inHg , 1017.6 hPa
Clouds: Mostly cloudy
Visibility: 10 miles , 16 km
Cloud details: Partly cloudy 7500 ft
Mostly cloudy 17000 ft
Mostly cloudy 25000 ft
2019/08/19 11:53 KHSV 191153Z VRB03KT 10SM SCT075 BKN170 BKN250 24/22 A3005 RMK AO2 SLP167 T02390222 10261 20233 51019 $
KBNA - Nashville, TN, USA
Distance from station: NE 97mi, 157km
Updated: Mon, 19-Aug-2019 6:53am CDT
Partly cloudy
Partly cloudy
 Wind from calm
Wind: Calm
Temperature: 75°F , 24°C
Dew Point: 70°F , 21°C
Humidity: 83%
Barometer: 30.05 inHg , 1017.6 hPa
Clouds: Partly cloudy
Visibility: 10 miles , 16 km
Cloud details: Few Clouds 5500 ft
Partly cloudy 10000 ft
Partly cloudy 25000 ft
2019/08/19 11:53 KBNA 191153Z 00000KT 10SM FEW055 SCT100 SCT250 24/21 A3005 RMK AO2 SLP168 T02440206 10256 20233 51016
 
KMEM - Memphis, Tennessee, USA
Distance from station: W 99mi, 159km
Updated: Mon, 19-Aug-2019 6:54am CDT
Few Clouds
Few Clouds
 Wind from SE
Wind: SE 5 mph , 7 km/h
Temperature: 75°F , 24°C
Dew Point: 73°F , 23°C
Humidity: 94%
Barometer: 30.03 inHg , 1016.9 hPa
Clouds: Few Clouds
Visibility: 10 miles , 16 km
Cloud details: Few Clouds 3500 ft
2019/08/19 11:54 KMEM 191154Z 13004KT 10SM FEW035 24/23 A3003 RMK AO2 SLP164 T02440233 10250 20239 53020
KCKV - Clarksville, TN, USA
Distance from station: NNE 99mi, 159km
Updated: Mon, 19-Aug-2019 6:52am CDT
Mist, Clear
Mist, Clear
 Wind from calm
Wind: Calm
Temperature: 72°F , 22°C
Dew Point: 70°F , 21°C
Humidity: 94%
Barometer: 30.05 inHg , 1017.6 hPa
Summary: Mist
Clouds: Clear
Visibility: 1 1/2 miles , 2.4 km
2019/08/19 11:52 KCKV 191152Z AUTO 00000KT 1 1/2SM BR CLR 22/21 A3005 RMK AO2 SLP168 T02170211 10256 20206 53017
 
KCHA - Chattanooga, TN, USA
Distance from station: E 165mi, 265km
Updated: Mon, 19-Aug-2019 6:53am CDT
Mostly cloudy
Mostly cloudy
 Wind from calm
Wind: Calm
Temperature: 75°F , 24°C
Dew Point: 70°F , 21°C
Humidity: 83%
Barometer: 30.07 inHg , 1018.3 hPa
Clouds: Mostly cloudy
Visibility: 10 miles , 16 km
Cloud details: Partly cloudy 8500 ft
Mostly cloudy 20000 ft
2019/08/19 11:53 KCHA 191153Z 00000KT 10SM SCT085 BKN200 24/21 A3007 RMK AO2 SLP175 T02440211 10267 20228 51018
KTYS - Knoxville, TN, USA
Distance from station: E 234mi, 377km
Updated: Mon, 19-Aug-2019 6:53am CDT
Mostly cloudy
Mostly cloudy
 Wind from calm
Wind: Calm
Temperature: 73°F , 23°C
Dew Point: 66°F , 19°C
Humidity: 78%
Barometer: 30.08 inHg , 1018.6 hPa
Clouds: Mostly cloudy
Visibility: 10 miles , 16 km
Cloud details: Few Clouds 8000 ft
Mostly cloudy 25000 ft
2019/08/19 11:53 KTYS 191153Z 00000KT 10SM FEW080 BKN250 23/19 A3008 RMK AO2 SLP174 T02330194 10261 20217 53018

Refresh Page for latest data.